DucheSS Of Scandinavia — OUZI2 — position and weather

sailwx.info

Track history (hours):
 
Tides and Currents Weather Stations Pressure Air Temp Water Temp Dewpoint Dewpoint Depression Visibility Wind Speed Wind Dir Waves Ship Positions

DucheSS Of Scandinavia

Operator: DFDS A/S

Last reported at 2017-May-24 20:59 UTC. Time now 2017-May-24 21:23 UTC.
Position N 59°06' E 010°14'.

Length 134 m; draft 5.4 m.

Type: Passenger vessel. MMSI: 219002929.

Date/timePositionNaut miles runAvg speedWind from/ knotsBaromVisibWave heightAir tempDewpointWater temp
2017-May-24 20:59N 59°06' E 010°14'0 0.0
2017-May-24 20:30N 59°06' E 010°14'0 0.0
2017-May-24 20:00N 59°06' E 010°14'1 2.9
2017-May-24 19:30N 59°08' E 010°14'0 0.0
2017-May-24 19:00N 59°08' E 010°14'3 6.6
2017-May-24 18:31N 59°04' E 010°15'714.1
2017-May-24 18:01N 59°01' E 010°27'816.4
2017-May-24 17:31N 59°01' E 010°43'815.9
2017-May-24 17:01N 59°00' E 010°58'714.6
2017-May-24 16:31N 58°56' E 011°09'0 1.0
2017-May-24 16:01N 58°56' E 011°10'4 7.8
2017-May-24 15:31N 58°57' E 011°03'815.5
2017-May-24 15:01N 59°01' E 010°50'816.0
2017-May-24 14:31N 59°01' E 010°35'1212.4
2017-May-24 13:30N 59°07' E 010°14'1 1.5
2017-May-24 13:01N 59°08' E 010°14'0 0.0
2017-May-24 12:30N 59°08' E 010°14'611.2
2017-May-24 12:00N 59°02' E 010°16'714.9
2017-May-24 11:30N 59°01' E 010°30'815.3
2017-May-24 11:00N 59°02' E 010°45'714.9
2017-May-24 10:30N 58°60' E 010°58'713.9
2017-May-24 10:01N 58°56' E 011°10'0 0.4
2017-May-24 09:31N 58°56' E 011°10'0 0.3
2017-May-24 09:01N 58°56' E 011°10'713.1
2017-May-24 08:30N 58°59' E 010°59'815.3
2017-May-24 08:00N 59°01' E 010°45'815.5
2017-May-24 07:30N 59°00' E 010°30'815.0
2017-May-24 07:00N 59°02' E 010°16'510.8
2017-May-24 06:30N 59°08' E 010°14'0 0.1
2017-May-24 06:00N 59°08' E 010°14'1 2.9
2017-May-24 05:30N 59°06' E 010°14'0 0.1
2017-May-24 04:59N 59°06' E 010°14'0 0.0
2017-May-24 04:27N 59°06' E 010°14'0 0.0
2017-May-24 04:00N 59°06' E 010°14'0 0.0
2017-May-24 03:30N 59°06' E 010°14'0 0.0
2017-May-24 03:01N 59°06' E 010°14'0 0.0
2017-May-24 02:28N 59°06' E 010°14'0 0.0
2017-May-24 01:58N 59°06' E 010°14'0 0.0
2017-May-24 01:29N 59°06' E 010°14'0 0.0
2017-May-24 00:59N 59°06' E 010°14'0 0.0
2017-May-24 00:29N 59°06' E 010°14'0 0.0
2017-May-24 00:00N 59°06' E 010°14'0 0.0
2017-May-23 23:30N 59°06' E 010°14'0 0.0
2017-May-23 23:00N 59°06' E 010°14'0 0.0
2017-May-23 22:28N 59°06' E 010°14'0 0.0
2017-May-23 21:58N 59°06' E 010°14'0 0.0
2017-May-23 21:28N 59°06' E 010°14'0 0.0
2017-May-23 20:59N 59°06' E 010°14'0 0.0
2017-May-23 20:29N 59°06' E 010°14'0 0.0
2017-May-23 19:59N 59°06' E 010°14'1 2.7
2017-May-23 19:29N 59°07' E 010°14'0 0.2
2017-May-23 19:00N 59°08' E 010°14'4 7.1
2017-May-23 18:31N 59°04' E 010°15'713.8
2017-May-23 18:01N 59°01' E 010°27'816.0
2017-May-23 17:31N 59°01' E 010°42'815.4
2017-May-23 17:01N 59°00' E 010°57'714.8
2017-May-23 16:31N 58°56' E 011°09'1 1.7
2017-May-23 16:01N 58°56' E 011°10'3 5.9
2017-May-23 15:31N 58°56' E 011°04'815.8
2017-May-23 15:00N 59°01' E 010°52'1616.0
2017-May-23 14:00N 59°01' E 010°21'713.2
2017-May-23 13:31N 59°07' E 010°14'1 2.1
2017-May-23 13:00N 59°08' E 010°14'0 0.0
2017-May-23 12:30N 59°08' E 010°14'4 8.6
2017-May-23 12:01N 59°03' E 010°15'713.8
2017-May-23 11:30N 59°01' E 010°28'815.3
2017-May-23 11:00N 59°01' E 010°42'714.9
2017-May-23 10:30N 59°00' E 010°57'815.2
2017-May-23 10:01N 58°56' E 011°09'1 1.6
2017-May-23 09:30N 58°56' E 011°10'0 0.0
2017-May-23 09:00N 58°56' E 011°10'611.1
2017-May-23 08:30N 58°59' E 011°01'816.5
2017-May-23 08:00N 59°02' E 010°46'816.9
2017-May-23 07:31N 59°01' E 010°30'815.4
2017-May-23 07:01N 59°03' E 010°15'5 9.9
2017-May-23 06:31N 59°08' E 010°14'0 0.0
2017-May-23 06:01N 59°08' E 010°14'1 2.8
2017-May-23 05:30N 59°06' E 010°14'0 0.0
2017-May-23 04:58N 59°06' E 010°14'0 0.0
2017-May-23 04:29N 59°06' E 010°14'0 0.0
2017-May-23 03:59N 59°06' E 010°14'0 0.0
2017-May-23 03:29N 59°06' E 010°14'0 0.0
2017-May-23 03:00N 59°06' E 010°14'0 0.0
2017-May-23 02:30N 59°06' E 010°14'0 0.0
2017-May-23 02:00N 59°06' E 010°14'0 0.0
2017-May-23 01:28N 59°06' E 010°14'0 0.0
2017-May-23 00:58N 59°06' E 010°14'0 0.0
2017-May-23 00:28N 59°06' E 010°14'0 0.0
2017-May-22 23:59N 59°06' E 010°14'0 0.0
2017-May-22 23:29N 59°06' E 010°14'0 0.0
2017-May-22 22:59N 59°06' E 010°14'0 0.0
2017-May-22 22:30N 59°06' E 010°14'0 0.0
2017-May-22 22:00N 59°06' E 010°14'0 0.0
2017-May-22 21:30N 59°06' E 010°14'0 0.0
2017-May-22 20:58N 59°06' E 010°14'0 0.0
2017-May-22 20:28N 59°06' E 010°14'0 0.0
2017-May-22 19:58N 59°06' E 010°14'0 0.0
2017-May-22 19:31N 59°06' E 010°14'1 2.9
2017-May-22 19:01N 59°08' E 010°14'4 7.5
2017-May-22 18:31N 59°04' E 010°15'713.4
2017-May-22 18:00N 59°01' E 010°26'815.0
2017-May-22 17:31N 59°01' E 010°41'815.6
2017-May-22 17:01N 59°00' E 010°56'815.7
2017-May-22 16:31N 58°56' E 011°08'1 1.8
2017-May-22 16:00N 58°56' E 011°10'3 5.4
2017-May-22 15:31N 58°56' E 011°05'815.6
2017-May-22 15:00N 59°01' E 010°53'1615.6
2017-May-22 14:00N 59°01' E 010°22'713.4
2017-May-22 13:30N 59°06' E 010°14'2 3.2
2017-May-22 13:00N 59°08' E 010°14'0 0.0
2017-May-22 12:30N 59°08' E 010°14'5 9.4
2017-May-22 12:00N 59°03' E 010°15'714.4
2017-May-22 11:30N 59°01' E 010°29'815.7
2017-May-22 11:00N 59°02' E 010°44'815.7
2017-May-22 10:30N 58°60' E 010°58'714.0
2017-May-22 10:00N 58°56' E 011°10'0 0.3
2017-May-22 09:30N 58°56' E 011°10'0 0.0
2017-May-22 09:01N 58°56' E 011°10'5 9.9
2017-May-22 08:31N 58°58' E 011°02'815.8
2017-May-22 08:01N 59°02' E 010°48'816.4
2017-May-22 07:31N 59°01' E 010°32'816.2
2017-May-22 07:01N 59°02' E 010°16'612.1
2017-May-22 06:30N 59°07' E 010°14'0 0.3
2017-May-22 06:00N 59°08' E 010°14'1 2.9
2017-May-22 05:30N 59°06' E 010°14'0 0.0
2017-May-22 04:58N 59°06' E 010°14'0 0.0
2017-May-22 04:28N 59°06' E 010°14'0 0.0
2017-May-22 03:59N 59°06' E 010°14'0 0.0
2017-May-22 03:29N 59°06' E 010°14'0 0.0
2017-May-22 02:59N 59°06' E 010°14'0 0.0
2017-May-22 02:30N 59°06' E 010°14'0 0.0
2017-May-22 02:00N 59°06' E 010°14'0 0.0
2017-May-22 01:30N 59°06' E 010°14'0 0.0
2017-May-22 00:58N 59°06' E 010°14'0 0.0
2017-May-22 00:28N 59°06' E 010°14'0 0.0
2017-May-21 23:58N 59°06' E 010°14'0 0.0
2017-May-21 23:29N 59°06' E 010°14'0 0.0
2017-May-21 22:59N 59°06' E 010°14'0 0.0
2017-May-21 22:29N 59°06' E 010°14'0 0.0
2017-May-21 22:00N 59°06' E 010°14'0 0.0
2017-May-21 21:30N 59°06' E 010°14'0 0.0
2017-May-21 21:00N 59°06' E 010°14'0 0.0
2017-May-21 20:31N 59°06' E 010°14'0 0.0
2017-May-21 19:58N 59°06' E 010°14'1 1.3
2017-May-21 19:31N 59°07' E 010°14'1 1.7
2017-May-21 19:00N 59°08' E 010°14'4 8.0
2017-May-21 18:30N 59°04' E 010°15'714.0
2017-May-21 18:01N 59°01' E 010°27'815.5
2017-May-21 17:31N 59°01' E 010°42'815.4
2017-May-21 17:00N 59°00' E 010°57'815.1
2017-May-21 16:30N 58°56' E 011°09'1 1.1
2017-May-21 16:00N 58°56' E 011°10'3 5.2
2017-May-21 15:31N 58°56' E 011°05'815.3
2017-May-21 15:00N 59°01' E 010°53'1615.7
2017-May-21 14:01N 59°01' E 010°23'713.6
2017-May-21 13:30N 59°06' E 010°14'2 3.3
2017-May-21 13:01N 59°08' E 010°14'0 0.0
2017-May-21 12:30N 59°08' E 010°14'5 9.6
2017-May-21 12:01N 59°03' E 010°15'713.8
2017-May-21 11:31N 59°01' E 010°28'714.6
2017-May-21 11:01N 59°01' E 010°42'714.6
2017-May-21 10:30N 59°00' E 010°56'815.3
2017-May-21 10:00N 58°56' E 011°08'1 2.0
2017-May-21 09:30N 58°56' E 011°10'0 0.0
2017-May-21 09:01N 58°56' E 011°10'611.5
2017-May-21 08:31N 58°59' E 011°01'816.2
2017-May-21 08:00N 59°02' E 010°46'816.6
2017-May-21 07:31N 59°00' E 010°30'815.5
2017-May-21 07:01N 59°03' E 010°15'510.2
2017-May-21 06:31N 59°08' E 010°14'0 0.0
2017-May-21 06:01N 59°08' E 010°14'1 2.8
2017-May-21 05:30N 59°06' E 010°14'0 0.1
2017-May-21 04:58N 59°06' E 010°14'0 0.0
2017-May-21 04:28N 59°06' E 010°14'0 0.0
2017-May-21 03:58N 59°06' E 010°14'0 0.0
2017-May-21 03:29N 59°06' E 010°14'0 0.0
2017-May-21 02:59N 59°06' E 010°14'0 0.0
2017-May-21 02:29N 59°06' E 010°14'0 0.0
2017-May-21 02:00N 59°06' E 010°14'0 0.0
2017-May-21 01:30N 59°06' E 010°14'0 0.0
2017-May-21 01:00N 59°06' E 010°14'0 0.0
2017-May-21 00:28N 59°06' E 010°14'0 0.0
2017-May-20 23:58N 59°06' E 010°14'0 0.0
2017-May-20 23:28N 59°06' E 010°14'0 0.0
2017-May-20 22:59N 59°06' E 010°14'0 0.0
2017-May-20 22:29N 59°06' E 010°14'0 0.0
2017-May-20 21:59N 59°06' E 010°14'0 0.0
2017-May-20 21:30N 59°06' E 010°14'0 0.0
2017-May-20 21:00N 59°06' E 010°14'0 0.0
2017-May-20 20:30N 59°06' E 010°14'0 0.0
2017-May-20 19:58N 59°06' E 010°14'1 1.4
2017-May-20 19:31N 59°07' E 010°14'1 1.6
2017-May-20 19:01N 59°08' E 010°14'3 6.3
2017-May-20 18:31N 59°04' E 010°15'713.3
2017-May-20 18:01N 59°01' E 010°26'815.8
2017-May-20 17:30N 59°01' E 010°41'816.3
2017-May-20 17:01N 59°00' E 010°57'815.6
2017-May-20 16:31N 58°56' E 011°09'1 1.5
2017-May-20 16:01N 58°56' E 011°10'3 6.0
2017-May-20 15:31N 58°56' E 011°04'815.3
2017-May-20 15:01N 59°01' E 010°52'815.7
2017-May-20 14:31N 59°01' E 010°37'1313.2
2017-May-20 13:30N 59°06' E 010°14'1 2.2
2017-May-20 13:00N 59°08' E 010°14'0 0.0
2017-May-20 12:31N 59°08' E 010°14'510.3
2017-May-20 12:00N 59°03' E 010°15'713.8
2017-May-20 11:31N 59°01' E 010°28'815.2
2017-May-20 11:00N 59°02' E 010°43'815.3
2017-May-20 10:31N 58°60' E 010°58'714.6
2017-May-20 10:00N 58°56' E 011°09'0 0.7
2017-May-20 09:31N 58°56' E 011°10'0 0.1
2017-May-20 09:01N 58°56' E 011°10'612.2
2017-May-20 08:31N 58°59' E 010°60'816.5
2017-May-20 08:01N 59°01' E 010°45'816.6
2017-May-20 07:31N 59°00' E 010°29'815.1
2017-May-20 07:00N 59°03' E 010°15'4 8.4
2017-May-20 06:31N 59°08' E 010°14'0 0.0
2017-May-20 06:00N 59°08' E 010°14'1 2.1
2017-May-20 05:31N 59°07' E 010°14'0 0.7
2017-May-20 05:00N 59°06' E 010°14'0 0.0
2017-May-20 04:29N 59°06' E 010°14'0 0.0
2017-May-20 03:59N 59°06' E 010°14'0 0.0
2017-May-20 03:30N 59°06' E 010°14'0 0.0
2017-May-20 03:00N 59°06' E 010°14'0 0.0
2017-May-20 02:30N 59°06' E 010°14'0 0.0
2017-May-20 01:58N 59°06' E 010°14'0 0.0
2017-May-20 01:28N 59°06' E 010°14'0 0.0
2017-May-20 00:58N 59°06' E 010°14'0 0.0
2017-May-20 00:29N 59°06' E 010°14'0 0.0
2017-May-19 23:59N 59°06' E 010°14'0 0.0
2017-May-19 23:29N 59°06' E 010°14'0 0.0
2017-May-19 23:00N 59°06' E 010°14'0 0.0
2017-May-19 22:30N 59°06' E 010°14'0 0.0
2017-May-19 22:00N 59°06' E 010°14'0 0.0
2017-May-19 21:28N 59°06' E 010°14'0 0.0
2017-May-19 20:58N 59°06' E 010°14'0 0.0
2017-May-19 20:28N 59°06' E 010°14'0 0.0
2017-May-19 20:01N 59°06' E 010°14'1 2.6
2017-May-19 19:31N 59°07' E 010°14'0 0.2
2017-May-19 19:01N 59°08' E 010°14'4 7.3
2017-May-19 18:31N 59°04' E 010°15'714.1
2017-May-19 18:01N 59°01' E 010°27'816.0
2017-May-19 17:31N 59°01' E 010°42'816.2
2017-May-19 17:01N 58°60' E 010°58'714.3
2017-May-19 16:31N 58°56' E 011°09'0 0.8
2017-May-19 16:01N 58°56' E 011°10'3 5.7
2017-May-19 15:31N 58°56' E 011°05'815.9
2017-May-19 15:01N 59°01' E 010°52'1616.4
2017-May-19 14:01N 59°01' E 010°20'713.7
2017-May-19 13:30N 59°07' E 010°14'1 1.5
2017-May-19 13:01N 59°08' E 010°14'0 0.0
2017-May-19 12:31N 59°08' E 010°14'5 9.4
2017-May-19 12:01N 59°03' E 010°15'714.1
2017-May-19 11:31N 59°01' E 010°28'714.6
2017-May-19 11:01N 59°01' E 010°42'715.0
2017-May-19 10:31N 59°00' E 010°57'714.9
2017-May-19 10:01N 58°56' E 011°08'1 1.9
2017-May-19 09:31N 58°56' E 011°10'0 0.1
2017-May-19 09:01N 58°56' E 011°10'511.0
2017-May-19 08:31N 58°59' E 011°01'816.7
2017-May-19 08:01N 59°02' E 010°46'917.4
2017-May-19 07:31N 59°00' E 010°29'815.3
2017-May-19 07:00N 59°03' E 010°15'4 8.7
2017-May-19 06:31N 59°08' E 010°14'0 0.1
2017-May-19 06:00N 59°08' E 010°14'1 1.5
2017-May-19 05:31N 59°07' E 010°14'1 1.3
2017-May-19 04:59N 59°06' E 010°14'0 0.0
2017-May-19 04:29N 59°06' E 010°14'0 0.0
2017-May-19 04:00N 59°06' E 010°14'0 0.0
2017-May-19 03:30N 59°06' E 010°14'0 0.0
2017-May-19 03:00N 59°06' E 010°14'0 0.0
2017-May-19 02:28N 59°06' E 010°14'0 0.0
2017-May-19 01:58N 59°06' E 010°14'0 0.0
2017-May-19 01:29N 59°06' E 010°14'0 0.0
2017-May-19 00:59N 59°06' E 010°14'0 0.0
2017-May-19 00:29N 59°06' E 010°14'0 0.0
2017-May-19 00:00N 59°06' E 010°14'0 0.0
2017-May-18 23:30N 59°06' E 010°14'0 0.0
2017-May-18 23:00N 59°06' E 010°14'0 0.0
2017-May-18 22:30N 59°06' E 010°14'0 0.0
2017-May-18 21:58N 59°06' E 010°14'0 0.0
2017-May-18 21:28N 59°06' E 010°14'0 0.0
2017-May-18 20:59N 59°06' E 010°14'0 0.0
2017-May-18 20:29N 59°06' E 010°14'0 0.0
2017-May-18 19:59N 59°06' E 010°14'1 2.9
2017-May-18 19:31N 59°08' E 010°14'0 0.1
2017-May-18 19:00N 59°08' E 010°14'4 8.9
2017-May-18 18:30N 59°03' E 010°15'714.6
2017-May-18 18:01N 59°01' E 010°28'815.9
2017-May-18 17:31N 59°02' E 010°44'816.0
2017-May-18 17:01N 58°60' E 010°59'713.7
2017-May-18 16:31N 58°56' E 011°10'0 0.1
2017-May-18 16:01N 58°56' E 011°10'2 3.8
2017-May-18 15:31N 58°56' E 011°07'815.5
2017-May-18 15:01N 59°01' E 010°54'816.3
2017-May-18 14:30N 59°01' E 010°38'1313.5
2017-May-18 13:31N 59°06' E 010°14'1 3.0
2017-May-18 13:00N 59°08' E 010°14'0 0.0
2017-May-18 12:30N 59°08' E 010°14'5 9.7
2017-May-18 12:01N 59°03' E 010°15'714.1
2017-May-18 11:31N 59°01' E 010°28'714.5
2017-May-18 11:01N 59°01' E 010°42'714.2
2017-May-18 10:31N 59°00' E 010°56'815.0
2017-May-18 10:01N 58°56' E 011°08'1 2.3
2017-May-18 09:31N 58°56' E 011°10'0 0.0
2017-May-18 09:01N 58°56' E 011°10'510.3
2017-May-18 08:31N 58°59' E 011°02'815.6
2017-May-18 08:00N 59°02' E 010°48'816.4
2017-May-18 07:30N 59°01' E 010°32'816.4
2017-May-18 07:00N 59°02' E 010°16'611.5
2017-May-18 06:30N 59°07' E 010°14'0 0.4
2017-May-18 06:01N 59°08' E 010°14'0 0.8
2017-May-18 05:30N 59°07' E 010°14'1 2.1
2017-May-18 05:00N 59°06' E 010°14'0 0.0
2017-May-18 04:30N 59°06' E 010°14'0 0.0
2017-May-18 03:58N 59°06' E 010°14'0 0.0
2017-May-18 03:28N 59°06' E 010°14'0 0.0
2017-May-18 02:58N 59°06' E 010°14'0 0.0
2017-May-18 02:29N 59°06' E 010°14'0 0.0
2017-May-18 01:59N 59°06' E 010°14'0 0.0
2017-May-18 01:29N 59°06' E 010°14'0 0.0
2017-May-18 01:00N 59°06' E 010°14'0 0.0
2017-May-18 00:30N 59°06' E 010°14'0 0.0
2017-May-18 00:00N 59°06' E 010°14'0 0.0
2017-May-17 23:28N 59°06' E 010°14'0 0.0
2017-May-17 22:58N 59°06' E 010°14'0 0.0
2017-May-17 22:28N 59°06' E 010°14'0 0.0
2017-May-17 21:59N 59°06' E 010°14'0 0.0
2017-May-17 21:29N 59°06' E 010°14'0 0.0
2017-May-17 20:59N 59°06' E 010°14'0 0.0
2017-May-17 20:30N 59°06' E 010°14'0 0.0
2017-May-17 20:00N 59°06' E 010°14'1 1.8
2017-May-17 19:30N 59°07' E 010°14'1 1.1
2017-May-17 19:00N 59°08' E 010°14'510.4
2017-May-17 18:31N 59°02' E 010°15'815.6
2017-May-17 18:01N 59°01' E 010°30'815.7
2017-May-17 17:30N 59°02' E 010°45'815.9
2017-May-17 17:00N 58°59' E 010°60'612.6
2017-May-17 16:30N 58°56' E 011°10'0 0.1
2017-May-17 16:00N 58°56' E 011°10'3 6.1
2017-May-17 15:31N 58°57' E 011°04'815.1
2017-May-17 15:00N 59°01' E 010°52'815.6
2017-May-17 14:30N 59°01' E 010°37'1313.0
2017-May-17 13:31N 59°06' E 010°14'2 3.1
2017-May-17 13:01N 59°08' E 010°14'0 0.0
2017-May-17 12:30N 59°08' E 010°14'4 8.5
2017-May-17 12:01N 59°03' E 010°15'714.4
2017-May-17 11:31N 59°01' E 010°28'815.5
2017-May-17 11:01N 59°02' E 010°43'815.8
2017-May-17 10:31N 58°60' E 010°58'713.7
2017-May-17 10:01N 58°56' E 011°09'1 1.6
2017-May-17 09:31N 58°56' E 011°10'0 0.1
2017-May-17 09:01N 58°56' E 011°10'713.1
2017-May-17 08:31N 58°59' E 010°59'816.8
2017-May-17 08:00N 59°01' E 010°43'917.4
2017-May-17 07:30N 59°01' E 010°27'714.4
2017-May-17 07:00N 59°04' E 010°15'3 6.4
2017-May-17 06:31N 59°08' E 010°14'0 0.0
2017-May-17 06:00N 59°08' E 010°14'0 0.2
2017-May-17 05:30N 59°07' E 010°14'1 2.5
2017-May-17 04:58N 59°06' E 010°14'0 0.0
2017-May-17 04:28N 59°06' E 010°14'0 0.0
2017-May-17 03:58N 59°06' E 010°14'0 0.0
2017-May-17 03:29N 59°06' E 010°14'0 0.0
2017-May-17 02:59N 59°06' E 010°14'0 0.0
2017-May-17 02:29N 59°06' E 010°14'0 0.0
2017-May-17 02:00N 59°06' E 010°14'0 0.0
2017-May-17 01:30N 59°06' E 010°14'0 0.0
2017-May-17 01:00N 59°06' E 010°14'0 0.0
2017-May-17 00:28N 59°06' E 010°14'0 0.0
2017-May-16 23:58N 59°06' E 010°14'0 0.0
2017-May-16 23:28N 59°06' E 010°14'0 0.0
2017-May-16 22:59N 59°06' E 010°14'0 0.0
2017-May-16 22:29N 59°06' E 010°14'0 0.0
2017-May-16 21:59N 59°06' E 010°14'0 0.0
2017-May-16 21:30N 59°06' E 010°14'0 0.0
2017-May-16 21:00N 59°06' E 010°14'0 0.0
2017-May-16 20:30N 59°06' E 010°14'0 0.0
2017-May-16 19:58N 59°06' E 010°14'1 2.8
2017-May-16 19:30N 59°07' E 010°14'0 0.3
2017-May-16 19:01N 59°08' E 010°14'4 7.3
2017-May-16 18:30N 59°04' E 010°15'714.2
2017-May-16 18:00N 59°01' E 010°27'714.9
2017-May-16 17:30N 59°01' E 010°42'815.4
2017-May-16 17:00N 59°00' E 010°56'815.7
2017-May-16 16:30N 58°56' E 011°09'1 1.6
2017-May-16 16:01N 58°56' E 011°10'3 5.7
2017-May-16 15:30N 58°56' E 011°05'815.6
2017-May-16 15:01N 59°01' E 010°52'816.0
2017-May-16 14:31N 59°01' E 010°37'1313.0
2017-May-16 13:31N 59°06' E 010°14'1 2.3
2017-May-16 13:01N 59°08' E 010°14'0 0.0
2017-May-16 12:30N 59°08' E 010°14'5 9.9
2017-May-16 12:01N 59°03' E 010°15'714.0
2017-May-16 11:31N 59°01' E 010°28'714.7
2017-May-16 11:01N 59°01' E 010°42'714.5
2017-May-16 10:31N 59°00' E 010°56'815.3
2017-May-16 10:01N 58°56' E 011°08'1 1.8
2017-May-16 09:31N 58°56' E 011°10'0 0.0
2017-May-16 09:01N 58°56' E 011°10'510.1
2017-May-16 08:31N 58°58' E 011°02'815.6
2017-May-16 08:01N 59°02' E 010°48'816.1
2017-May-16 07:31N 59°01' E 010°32'816.0
2017-May-16 07:01N 59°01' E 010°17'612.3
2017-May-16 06:31N 59°07' E 010°14'0 0.4
2017-May-16 06:01N 59°08' E 010°14'1 2.8
2017-May-16 05:31N 59°06' E 010°14'0 0.0
2017-May-16 05:00N 59°06' E 010°14'0 0.0
2017-May-16 04:31N 59°06' E 010°14'0 0.0
2017-May-16 04:01N 59°06' E 010°14'0 0.0
2017-May-16 03:30N 59°06' E 010°14'0 0.0
2017-May-16 03:00N 59°06' E 010°14'0 0.0
2017-May-16 02:31N 59°06' E 010°14'0 0.0
2017-May-16 02:01N 59°06' E 010°14'0 0.0
2017-May-16 01:31N 59°06' E 010°14'0 0.0
2017-May-16 01:00N 59°06' E 010°14'0 0.0
2017-May-16 00:31N 59°06' E 010°14'0 0.0
2017-May-16 00:01N 59°06' E 010°14'0 0.0
2017-May-15 23:30N 59°06' E 010°14'0 0.0
2017-May-15 23:01N 59°06' E 010°14'0 0.0
2017-May-15 22:31N 59°06' E 010°14'0 0.0
2017-May-15 22:00N 59°06' E 010°14'0 0.0
2017-May-15 21:31N 59°06' E 010°14'0 0.0
2017-May-15 21:01N 59°06' E 010°14'0 0.0
2017-May-15 20:31N 59°06' E 010°14'0 0.0
2017-May-15 20:01N 59°06' E 010°14'1 1.5
2017-May-15 19:30N 59°07' E 010°14'1 1.2
2017-May-15 19:00N 59°08' E 010°14'4 8.1
2017-May-15 18:31N 59°04' E 010°15'612.4
2017-May-15 18:01N 59°01' E 010°26'815.8
2017-May-15 17:31N 59°01' E 010°41'815.3
2017-May-15 17:01N 59°00' E 010°56'815.5
2017-May-15 16:30N 58°56' E 011°08'1 2.1
2017-May-15 16:01N 58°56' E 011°10'3 5.6
2017-May-15 15:31N 58°56' E 011°05'816.3
2017-May-15 15:01N 59°01' E 010°52'1716.7
2017-May-15 14:01N 59°01' E 010°19'713.0
2017-May-15 13:30N 59°07' E 010°14'1 1.4
2017-May-15 13:00N 59°08' E 010°14'0 0.0
2017-May-15 12:31N 59°08' E 010°14'510.0
2017-May-15 12:01N 59°03' E 010°15'714.4
2017-May-15 11:31N 59°01' E 010°29'815.0
2017-May-15 11:01N 59°02' E 010°43'815.0
2017-May-15 10:31N 58°60' E 010°58'713.9
2017-May-15 10:00N 58°56' E 011°08'1 1.8
2017-May-15 09:31N 58°56' E 011°10'0 0.0
2017-May-15 09:01N 58°56' E 011°10'5 9.6
2017-May-15 08:31N 58°58' E 011°02'816.0
2017-May-15 08:01N 59°02' E 010°48'816.7
2017-May-15 07:31N 59°01' E 010°32'816.2
2017-May-15 07:01N 59°02' E 010°17'611.9
2017-May-15 06:30N 59°07' E 010°14'0 0.4
2017-May-15 06:01N 59°08' E 010°14'1 2.8
2017-May-15 05:30N 59°06' E 010°14'0 0.0
2017-May-15 05:00N 59°06' E 010°14'0 0.0
2017-May-15 04:28N 59°06' E 010°14'0 0.0
2017-May-15 03:58N 59°06' E 010°14'0 0.0
2017-May-15 03:29N 59°06' E 010°14'0 0.0
2017-May-15 02:59N 59°06' E 010°14'0 0.0
2017-May-15 02:29N 59°06' E 010°14'0 0.0
2017-May-15 02:00N 59°06' E 010°14'0 0.0
2017-May-15 01:30N 59°06' E 010°14'0 0.0
2017-May-15 01:00N 59°06' E 010°14'0 0.0
2017-May-15 00:30N 59°06' E 010°14'0 0.0
2017-May-14 23:58N 59°06' E 010°14'0 0.0
2017-May-14 23:28N 59°06' E 010°14'0 0.0
2017-May-14 22:59N 59°06' E 010°14'0 0.0
2017-May-14 22:29N 59°06' E 010°14'0 0.0
2017-May-14 21:59N 59°06' E 010°14'0 0.0
2017-May-14 21:30N 59°06' E 010°14'0 0.0
2017-May-14 21:00N 59°06' E 010°14'  
Track history (hours):
 
Tides and Currents Weather Stations Pressure Air Temp Water Temp Dewpoint Dewpoint Depression Visibility Wind Speed Wind Dir Waves Ship Positions

DucheSS Of Scandinavia

Operator: DFDS A/S

Last reported at 2017-May-24 20:59 UTC. Time now 2017-May-24 21:23 UTC.
Position N 59°06' E 010°14'.

Length 134 m; draft 5.4 m.

Type: Passenger vessel. MMSI: 219002929.

Date/timePositionNaut miles runAvg speedWind from/ knotsBaromVisibWave heightAir tempDewpointWater temp
2017-May-24 20:59N 59°06' E 010°14'0 0.0
2017-May-24 20:30N 59°06' E 010°14'0 0.0
2017-May-24 20:00N 59°06' E 010°14'1 2.9
2017-May-24 19:30N 59°08' E 010°14'0 0.0
2017-May-24 19:00N 59°08' E 010°14'3 6.6
2017-May-24 18:31N 59°04' E 010°15'714.1
2017-May-24 18:01N 59°01' E 010°27'816.4
2017-May-24 17:31N 59°01' E 010°43'815.9
2017-May-24 17:01N 59°00' E 010°58'714.6
2017-May-24 16:31N 58°56' E 011°09'0 1.0
2017-May-24 16:01N 58°56' E 011°10'4 7.8
2017-May-24 15:31N 58°57' E 011°03'815.5
2017-May-24 15:01N 59°01' E 010°50'816.0
2017-May-24 14:31N 59°01' E 010°35'1212.4
2017-May-24 13:30N 59°07' E 010°14'1 1.5
2017-May-24 13:01N 59°08' E 010°14'0 0.0
2017-May-24 12:30N 59°08' E 010°14'611.2
2017-May-24 12:00N 59°02' E 010°16'714.9
2017-May-24 11:30N 59°01' E 010°30'815.3
2017-May-24 11:00N 59°02' E 010°45'714.9
2017-May-24 10:30N 58°60' E 010°58'713.9
2017-May-24 10:01N 58°56' E 011°10'0 0.4
2017-May-24 09:31N 58°56' E 011°10'0 0.3
2017-May-24 09:01N 58°56' E 011°10'713.1
2017-May-24 08:30N 58°59' E 010°59'815.3
2017-May-24 08:00N 59°01' E 010°45'815.5
2017-May-24 07:30N 59°00' E 010°30'815.0
2017-May-24 07:00N 59°02' E 010°16'510.8
2017-May-24 06:30N 59°08' E 010°14'0 0.1
2017-May-24 06:00N 59°08' E 010°14'1 2.9
2017-May-24 05:30N 59°06' E 010°14'0 0.1
2017-May-24 04:59N 59°06' E 010°14'0 0.0
2017-May-24 04:27N 59°06' E 010°14'0 0.0
2017-May-24 04:00N 59°06' E 010°14'0 0.0
2017-May-24 03:30N 59°06' E 010°14'0 0.0
2017-May-24 03:01N 59°06' E 010°14'0 0.0
2017-May-24 02:28N 59°06' E 010°14'0 0.0
2017-May-24 01:58N 59°06' E 010°14'0 0.0
2017-May-24 01:29N 59°06' E 010°14'0 0.0
2017-May-24 00:59N 59°06' E 010°14'0 0.0
2017-May-24 00:29N 59°06' E 010°14'0 0.0
2017-May-24 00:00N 59°06' E 010°14'0 0.0
2017-May-23 23:30N 59°06' E 010°14'0 0.0
2017-May-23 23:00N 59°06' E 010°14'0 0.0
2017-May-23 22:28N 59°06' E 010°14'0 0.0
2017-May-23 21:58N 59°06' E 010°14'0 0.0
2017-May-23 21:28N 59°06' E 010°14'0 0.0
2017-May-23 20:59N 59°06' E 010°14'0 0.0
2017-May-23 20:29N 59°06' E 010°14'0 0.0
2017-May-23 19:59N 59°06' E 010°14'1 2.7
2017-May-23 19:29N 59°07' E 010°14'0 0.2
2017-May-23 19:00N 59°08' E 010°14'4 7.1
2017-May-23 18:31N 59°04' E 010°15'713.8
2017-May-23 18:01N 59°01' E 010°27'816.0
2017-May-23 17:31N 59°01' E 010°42'815.4
2017-May-23 17:01N 59°00' E 010°57'714.8
2017-May-23 16:31N 58°56' E 011°09'1 1.7
2017-May-23 16:01N 58°56' E 011°10'3 5.9
2017-May-23 15:31N 58°56' E 011°04'815.8
2017-May-23 15:00N 59°01' E 010°52'1616.0
2017-May-23 14:00N 59°01' E 010°21'713.2
2017-May-23 13:31N 59°07' E 010°14'1 2.1
2017-May-23 13:00N 59°08' E 010°14'0 0.0
2017-May-23 12:30N 59°08' E 010°14'4 8.6
2017-May-23 12:01N 59°03' E 010°15'713.8
2017-May-23 11:30N 59°01' E 010°28'815.3
2017-May-23 11:00N 59°01' E 010°42'714.9
2017-May-23 10:30N 59°00' E 010°57'815.2
2017-May-23 10:01N 58°56' E 011°09'1 1.6
2017-May-23 09:30N 58°56' E 011°10'0 0.0
2017-May-23 09:00N 58°56' E 011°10'611.1
2017-May-23 08:30N 58°59' E 011°01'816.5
2017-May-23 08:00N 59°02' E 010°46'816.9
2017-May-23 07:31N 59°01' E 010°30'815.4
2017-May-23 07:01N 59°03' E 010°15'5 9.9
2017-May-23 06:31N 59°08' E 010°14'0 0.0
2017-May-23 06:01N 59°08' E 010°14'1 2.8
2017-May-23 05:30N 59°06' E 010°14'0 0.0
2017-May-23 04:58N 59°06' E 010°14'0 0.0
2017-May-23 04:29N 59°06' E 010°14'0 0.0
2017-May-23 03:59N 59°06' E 010°14'0 0.0
2017-May-23 03:29N 59°06' E 010°14'0 0.0
2017-May-23 03:00N 59°06' E 010°14'0 0.0
2017-May-23 02:30N 59°06' E 010°14'0 0.0
2017-May-23 02:00N 59°06' E 010°14'0 0.0
2017-May-23 01:28N 59°06' E 010°14'0 0.0
2017-May-23 00:58N 59°06' E 010°14'0 0.0
2017-May-23 00:28N 59°06' E 010°14'0 0.0
2017-May-22 23:59N 59°06' E 010°14'0 0.0
2017-May-22 23:29N 59°06' E 010°14'0 0.0
2017-May-22 22:59N 59°06' E 010°14'0 0.0
2017-May-22 22:30N 59°06' E 010°14'0 0.0
2017-May-22 22:00N 59°06' E 010°14'0 0.0
2017-May-22 21:30N 59°06' E 010°14'0 0.0
2017-May-22 20:58N 59°06' E 010°14'0 0.0
2017-May-22 20:28N 59°06' E 010°14'0 0.0
2017-May-22 19:58N 59°06' E 010°14'0 0.0
2017-May-22 19:31N 59°06' E 010°14'1 2.9
2017-May-22 19:01N 59°08' E 010°14'4 7.5
2017-May-22 18:31N 59°04' E 010°15'713.4
2017-May-22 18:00N 59°01' E 010°26'815.0
2017-May-22 17:31N 59°01' E 010°41'815.6
2017-May-22 17:01N 59°00' E 010°56'815.7
2017-May-22 16:31N 58°56' E 011°08'1 1.8
2017-May-22 16:00N 58°56' E 011°10'3 5.4
2017-May-22 15:31N 58°56' E 011°05'815.6
2017-May-22 15:00N 59°01' E 010°53'1615.6
2017-May-22 14:00N 59°01' E 010°22'713.4
2017-May-22 13:30N 59°06' E 010°14'2 3.2
2017-May-22 13:00N 59°08' E 010°14'0 0.0
2017-May-22 12:30N 59°08' E 010°14'5 9.4
2017-May-22 12:00N 59°03' E 010°15'714.4
2017-May-22 11:30N 59°01' E 010°29'815.7
2017-May-22 11:00N 59°02' E 010°44'815.7
2017-May-22 10:30N 58°60' E 010°58'714.0
2017-May-22 10:00N 58°56' E 011°10'0 0.3
2017-May-22 09:30N 58°56' E 011°10'0 0.0
2017-May-22 09:01N 58°56' E 011°10'5 9.9
2017-May-22 08:31N 58°58' E 011°02'815.8
2017-May-22 08:01N 59°02' E 010°48'816.4
2017-May-22 07:31N 59°01' E 010°32'816.2
2017-May-22 07:01N 59°02' E 010°16'612.1
2017-May-22 06:30N 59°07' E 010°14'0 0.3
2017-May-22 06:00N 59°08' E 010°14'1 2.9
2017-May-22 05:30N 59°06' E 010°14'0 0.0
2017-May-22 04:58N 59°06' E 010°14'0 0.0
2017-May-22 04:28N 59°06' E 010°14'0 0.0
2017-May-22 03:59N 59°06' E 010°14'0 0.0
2017-May-22 03:29N 59°06' E 010°14'0 0.0
2017-May-22 02:59N 59°06' E 010°14'0 0.0
2017-May-22 02:30N 59°06' E 010°14'0 0.0
2017-May-22 02:00N 59°06' E 010°14'0 0.0
2017-May-22 01:30N 59°06' E 010°14'0 0.0
2017-May-22 00:58N 59°06' E 010°14'0 0.0
2017-May-22 00:28N 59°06' E 010°14'0 0.0
2017-May-21 23:58N 59°06' E 010°14'0 0.0
2017-May-21 23:29N 59°06' E 010°14'0 0.0
2017-May-21 22:59N 59°06' E 010°14'0 0.0
2017-May-21 22:29N 59°06' E 010°14'0 0.0
2017-May-21 22:00N 59°06' E 010°14'0 0.0
2017-May-21 21:30N 59°06' E 010°14'0 0.0
2017-May-21 21:00N 59°06' E 010°14'0 0.0
2017-May-21 20:31N 59°06' E 010°14'0 0.0
2017-May-21 19:58N 59°06' E 010°14'1 1.3
2017-May-21 19:31N 59°07' E 010°14'1 1.7
2017-May-21 19:00N 59°08' E 010°14'4 8.0
2017-May-21 18:30N 59°04' E 010°15'714.0
2017-May-21 18:01N 59°01' E 010°27'815.5
2017-May-21 17:31N 59°01' E 010°42'815.4
2017-May-21 17:00N 59°00' E 010°57'815.1
2017-May-21 16:30N 58°56' E 011°09'1 1.1
2017-May-21 16:00N 58°56' E 011°10'3 5.2
2017-May-21 15:31N 58°56' E 011°05'815.3
2017-May-21 15:00N 59°01' E 010°53'1615.7
2017-May-21 14:01N 59°01' E 010°23'713.6
2017-May-21 13:30N 59°06' E 010°14'2 3.3
2017-May-21 13:01N 59°08' E 010°14'0 0.0
2017-May-21 12:30N 59°08' E 010°14'5 9.6
2017-May-21 12:01N 59°03' E 010°15'713.8
2017-May-21 11:31N 59°01' E 010°28'714.6
2017-May-21 11:01N 59°01' E 010°42'714.6
2017-May-21 10:30N 59°00' E 010°56'815.3
2017-May-21 10:00N 58°56' E 011°08'1 2.0
2017-May-21 09:30N 58°56' E 011°10'0 0.0
2017-May-21 09:01N 58°56' E 011°10'611.5
2017-May-21 08:31N 58°59' E 011°01'816.2
2017-May-21 08:00N 59°02' E 010°46'816.6
2017-May-21 07:31N 59°00' E 010°30'815.5
2017-May-21 07:01N 59°03' E 010°15'510.2
2017-May-21 06:31N 59°08' E 010°14'0 0.0
2017-May-21 06:01N 59°08' E 010°14'1 2.8
2017-May-21 05:30N 59°06' E 010°14'0 0.1
2017-May-21 04:58N 59°06' E 010°14'0 0.0
2017-May-21 04:28N 59°06' E 010°14'0 0.0
2017-May-21 03:58N 59°06' E 010°14'0 0.0
2017-May-21 03:29N 59°06' E 010°14'0 0.0
2017-May-21 02:59N 59°06' E 010°14'0 0.0
2017-May-21 02:29N 59°06' E 010°14'0 0.0
2017-May-21 02:00N 59°06' E 010°14'0 0.0
2017-May-21 01:30N 59°06' E 010°14'0 0.0
2017-May-21 01:00N 59°06' E 010°14'0 0.0
2017-May-21 00:28N 59°06' E 010°14'0 0.0
2017-May-20 23:58N 59°06' E 010°14'0 0.0
2017-May-20 23:28N 59°06' E 010°14'0 0.0
2017-May-20 22:59N 59°06' E 010°14'0 0.0
2017-May-20 22:29N 59°06' E 010°14'0 0.0
2017-May-20 21:59N 59°06' E 010°14'0 0.0
2017-May-20 21:30N 59°06' E 010°14'0 0.0
2017-May-20 21:00N 59°06' E 010°14'0 0.0
2017-May-20 20:30N 59°06' E 010°14'0 0.0
2017-May-20 19:58N 59°06' E 010°14'1 1.4
2017-May-20 19:31N 59°07' E 010°14'1 1.6
2017-May-20 19:01N 59°08' E 010°14'3 6.3
2017-May-20 18:31N 59°04' E 010°15'713.3
2017-May-20 18:01N 59°01' E 010°26'815.8
2017-May-20 17:30N 59°01' E 010°41'816.3
2017-May-20 17:01N 59°00' E 010°57'815.6
2017-May-20 16:31N 58°56' E 011°09'1 1.5
2017-May-20 16:01N 58°56' E 011°10'3 6.0
2017-May-20 15:31N 58°56' E 011°04'815.3
2017-May-20 15:01N 59°01' E 010°52'815.7
2017-May-20 14:31N 59°01' E 010°37'1313.2
2017-May-20 13:30N 59°06' E 010°14'1 2.2
2017-May-20 13:00N 59°08' E 010°14'0 0.0
2017-May-20 12:31N 59°08' E 010°14'510.3
2017-May-20 12:00N 59°03' E 010°15'713.8
2017-May-20 11:31N 59°01' E 010°28'815.2
2017-May-20 11:00N 59°02' E 010°43'815.3
2017-May-20 10:31N 58°60' E 010°58'714.6
2017-May-20 10:00N 58°56' E 011°09'0 0.7
2017-May-20 09:31N 58°56' E 011°10'0 0.1
2017-May-20 09:01N 58°56' E 011°10'612.2
2017-May-20 08:31N 58°59' E 010°60'816.5
2017-May-20 08:01N 59°01' E 010°45'816.6
2017-May-20 07:31N 59°00' E 010°29'815.1
2017-May-20 07:00N 59°03' E 010°15'4 8.4
2017-May-20 06:31N 59°08' E 010°14'0 0.0
2017-May-20 06:00N 59°08' E 010°14'1 2.1
2017-May-20 05:31N 59°07' E 010°14'0 0.7
2017-May-20 05:00N 59°06' E 010°14'0 0.0
2017-May-20 04:29N 59°06' E 010°14'0 0.0
2017-May-20 03:59N 59°06' E 010°14'0 0.0
2017-May-20 03:30N 59°06' E 010°14'0 0.0
2017-May-20 03:00N 59°06' E 010°14'0 0.0
2017-May-20 02:30N 59°06' E 010°14'0 0.0
2017-May-20 01:58N 59°06' E 010°14'0 0.0
2017-May-20 01:28N 59°06' E 010°14'0 0.0
2017-May-20 00:58N 59°06' E 010°14'0 0.0
2017-May-20 00:29N 59°06' E 010°14'0 0.0
2017-May-19 23:59N 59°06' E 010°14'0 0.0
2017-May-19 23:29N 59°06' E 010°14'0 0.0
2017-May-19 23:00N 59°06' E 010°14'0 0.0
2017-May-19 22:30N 59°06' E 010°14'0 0.0
2017-May-19 22:00N 59°06' E 010°14'0 0.0
2017-May-19 21:28N 59°06' E 010°14'0 0.0
2017-May-19 20:58N 59°06' E 010°14'0 0.0
2017-May-19 20:28N 59°06' E 010°14'0 0.0
2017-May-19 20:01N 59°06' E 010°14'1 2.6
2017-May-19 19:31N 59°07' E 010°14'0 0.2
2017-May-19 19:01N 59°08' E 010°14'4 7.3
2017-May-19 18:31N 59°04' E 010°15'714.1
2017-May-19 18:01N 59°01' E 010°27'816.0
2017-May-19 17:31N 59°01' E 010°42'816.2
2017-May-19 17:01N 58°60' E 010°58'714.3
2017-May-19 16:31N 58°56' E 011°09'0 0.8
2017-May-19 16:01N 58°56' E 011°10'3 5.7
2017-May-19 15:31N 58°56' E 011°05'815.9
2017-May-19 15:01N 59°01' E 010°52'1616.4
2017-May-19 14:01N 59°01' E 010°20'713.7
2017-May-19 13:30N 59°07' E 010°14'1 1.5
2017-May-19 13:01N 59°08' E 010°14'0 0.0
2017-May-19 12:31N 59°08' E 010°14'5 9.4
2017-May-19 12:01N 59°03' E 010°15'714.1
2017-May-19 11:31N 59°01' E 010°28'714.6
2017-May-19 11:01N 59°01' E 010°42'715.0
2017-May-19 10:31N 59°00' E 010°57'714.9
2017-May-19 10:01N 58°56' E 011°08'1 1.9
2017-May-19 09:31N 58°56' E 011°10'0 0.1
2017-May-19 09:01N 58°56' E 011°10'511.0
2017-May-19 08:31N 58°59' E 011°01'816.7
2017-May-19 08:01N 59°02' E 010°46'917.4
2017-May-19 07:31N 59°00' E 010°29'815.3
2017-May-19 07:00N 59°03' E 010°15'4 8.7
2017-May-19 06:31N 59°08' E 010°14'0 0.1
2017-May-19 06:00N 59°08' E 010°14'1 1.5
2017-May-19 05:31N 59°07' E 010°14'1 1.3
2017-May-19 04:59N 59°06' E 010°14'0 0.0
2017-May-19 04:29N 59°06' E 010°14'0 0.0
2017-May-19 04:00N 59°06' E 010°14'0 0.0
2017-May-19 03:30N 59°06' E 010°14'0 0.0
2017-May-19 03:00N 59°06' E 010°14'0 0.0
2017-May-19 02:28N 59°06' E 010°14'0 0.0
2017-May-19 01:58N 59°06' E 010°14'0 0.0
2017-May-19 01:29N 59°06' E 010°14'0 0.0
2017-May-19 00:59N 59°06' E 010°14'0 0.0
2017-May-19 00:29N 59°06' E 010°14'0 0.0
2017-May-19 00:00N 59°06' E 010°14'0 0.0
2017-May-18 23:30N 59°06' E 010°14'0 0.0
2017-May-18 23:00N 59°06' E 010°14'0 0.0
2017-May-18 22:30N 59°06' E 010°14'0 0.0
2017-May-18 21:58N 59°06' E 010°14'0 0.0
2017-May-18 21:28N 59°06' E 010°14'0 0.0
2017-May-18 20:59N 59°06' E 010°14'0 0.0
2017-May-18 20:29N 59°06' E 010°14'0 0.0
2017-May-18 19:59N 59°06' E 010°14'1 2.9
2017-May-18 19:31N 59°08' E 010°14'0 0.1
2017-May-18 19:00N 59°08' E 010°14'4 8.9
2017-May-18 18:30N 59°03' E 010°15'714.6
2017-May-18 18:01N 59°01' E 010°28'815.9
2017-May-18 17:31N 59°02' E 010°44'816.0
2017-May-18 17:01N 58°60' E 010°59'713.7
2017-May-18 16:31N 58°56' E 011°10'0 0.1
2017-May-18 16:01N 58°56' E 011°10'2 3.8
2017-May-18 15:31N 58°56' E 011°07'815.5
2017-May-18 15:01N 59°01' E 010°54'816.3
2017-May-18 14:30N 59°01' E 010°38'1313.5
2017-May-18 13:31N 59°06' E 010°14'1 3.0
2017-May-18 13:00N 59°08' E 010°14'0 0.0
2017-May-18 12:30N 59°08' E 010°14'5 9.7
2017-May-18 12:01N 59°03' E 010°15'714.1
2017-May-18 11:31N 59°01' E 010°28'714.5
2017-May-18 11:01N 59°01' E 010°42'714.2
2017-May-18 10:31N 59°00' E 010°56'815.0
2017-May-18 10:01N 58°56' E 011°08'1 2.3
2017-May-18 09:31N 58°56' E 011°10'0 0.0
2017-May-18 09:01N 58°56' E 011°10'510.3
2017-May-18 08:31N 58°59' E 011°02'815.6
2017-May-18 08:00N 59°02' E 010°48'816.4
2017-May-18 07:30N 59°01' E 010°32'816.4
2017-May-18 07:00N 59°02' E 010°16'611.5
2017-May-18 06:30N 59°07' E 010°14'0 0.4
2017-May-18 06:01N 59°08' E 010°14'0 0.8
2017-May-18 05:30N 59°07' E 010°14'1 2.1
2017-May-18 05:00N 59°06' E 010°14'0 0.0
2017-May-18 04:30N 59°06' E 010°14'0 0.0
2017-May-18 03:58N 59°06' E 010°14'0 0.0
2017-May-18 03:28N 59°06' E 010°14'0 0.0
2017-May-18 02:58N 59°06' E 010°14'0 0.0
2017-May-18 02:29N 59°06' E 010°14'0 0.0
2017-May-18 01:59N 59°06' E 010°14'0 0.0
2017-May-18 01:29N 59°06' E 010°14'0 0.0
2017-May-18 01:00N 59°06' E 010°14'0 0.0
2017-May-18 00:30N 59°06' E 010°14'0 0.0
2017-May-18 00:00N 59°06' E 010°14'0 0.0
2017-May-17 23:28N 59°06' E 010°14'0 0.0
2017-May-17 22:58N 59°06' E 010°14'0 0.0
2017-May-17 22:28N 59°06' E 010°14'0 0.0
2017-May-17 21:59N 59°06' E 010°14'0 0.0
2017-May-17 21:29N 59°06' E 010°14'0 0.0
2017-May-17 20:59N 59°06' E 010°14'0 0.0
2017-May-17 20:30N 59°06' E 010°14'0 0.0
2017-May-17 20:00N 59°06' E 010°14'1 1.8
2017-May-17 19:30N 59°07' E 010°14'1 1.1
2017-May-17 19:00N 59°08' E 010°14'510.4
2017-May-17 18:31N 59°02' E 010°15'815.6
2017-May-17 18:01N 59°01' E 010°30'815.7
2017-May-17 17:30N 59°02' E 010°45'815.9
2017-May-17 17:00N 58°59' E 010°60'612.6
2017-May-17 16:30N 58°56' E 011°10'0 0.1
2017-May-17 16:00N 58°56' E 011°10'3 6.1
2017-May-17 15:31N 58°57' E 011°04'815.1
2017-May-17 15:00N 59°01' E 010°52'815.6
2017-May-17 14:30N 59°01' E 010°37'1313.0
2017-May-17 13:31N 59°06' E 010°14'2 3.1
2017-May-17 13:01N 59°08' E 010°14'0 0.0
2017-May-17 12:30N 59°08' E 010°14'4 8.5
2017-May-17 12:01N 59°03' E 010°15'714.4
2017-May-17 11:31N 59°01' E 010°28'815.5
2017-May-17 11:01N 59°02' E 010°43'815.8
2017-May-17 10:31N 58°60' E 010°58'713.7
2017-May-17 10:01N 58°56' E 011°09'1 1.6
2017-May-17 09:31N 58°56' E 011°10'0 0.1
2017-May-17 09:01N 58°56' E 011°10'713.1
2017-May-17 08:31N 58°59' E 010°59'816.8
2017-May-17 08:00N 59°01' E 010°43'917.4
2017-May-17 07:30N 59°01' E 010°27'714.4
2017-May-17 07:00N 59°04' E 010°15'3 6.4
2017-May-17 06:31N 59°08' E 010°14'0 0.0
2017-May-17 06:00N 59°08' E 010°14'0 0.2
2017-May-17 05:30N 59°07' E 010°14'1 2.5
2017-May-17 04:58N 59°06' E 010°14'0 0.0
2017-May-17 04:28N 59°06' E 010°14'0 0.0
2017-May-17 03:58N 59°06' E 010°14'0 0.0
2017-May-17 03:29N 59°06' E 010°14'0 0.0
2017-May-17 02:59N 59°06' E 010°14'0 0.0
2017-May-17 02:29N 59°06' E 010°14'0 0.0
2017-May-17 02:00N 59°06' E 010°14'0 0.0
2017-May-17 01:30N 59°06' E 010°14'0 0.0
2017-May-17 01:00N 59°06' E 010°14'0 0.0
2017-May-17 00:28N 59°06' E 010°14'0 0.0
2017-May-16 23:58N 59°06' E 010°14'0 0.0
2017-May-16 23:28N 59°06' E 010°14'0 0.0
2017-May-16 22:59N 59°06' E 010°14'0 0.0
2017-May-16 22:29N 59°06' E 010°14'0 0.0
2017-May-16 21:59N 59°06' E 010°14'0 0.0
2017-May-16 21:30N 59°06' E 010°14'0 0.0
2017-May-16 21:00N 59°06' E 010°14'0 0.0
2017-May-16 20:30N 59°06' E 010°14'0 0.0
2017-May-16 19:58N 59°06' E 010°14'1 2.8
2017-May-16 19:30N 59°07' E 010°14'0 0.3
2017-May-16 19:01N 59°08' E 010°14'4 7.3
2017-May-16 18:30N 59°04' E 010°15'714.2
2017-May-16 18:00N 59°01' E 010°27'714.9
2017-May-16 17:30N 59°01' E 010°42'815.4
2017-May-16 17:00N 59°00' E 010°56'815.7
2017-May-16 16:30N 58°56' E 011°09'1 1.6
2017-May-16 16:01N 58°56' E 011°10'3 5.7
2017-May-16 15:30N 58°56' E 011°05'815.6
2017-May-16 15:01N 59°01' E 010°52'816.0
2017-May-16 14:31N 59°01' E 010°37'1313.0
2017-May-16 13:31N 59°06' E 010°14'1 2.3
2017-May-16 13:01N 59°08' E 010°14'0 0.0
2017-May-16 12:30N 59°08' E 010°14'5 9.9
2017-May-16 12:01N 59°03' E 010°15'714.0
2017-May-16 11:31N 59°01' E 010°28'714.7
2017-May-16 11:01N 59°01' E 010°42'714.5
2017-May-16 10:31N 59°00' E 010°56'815.3
2017-May-16 10:01N 58°56' E 011°08'1 1.8
2017-May-16 09:31N 58°56' E 011°10'0 0.0
2017-May-16 09:01N 58°56' E 011°10'510.1
2017-May-16 08:31N 58°58' E 011°02'815.6
2017-May-16 08:01N 59°02' E 010°48'816.1
2017-May-16 07:31N 59°01' E 010°32'816.0
2017-May-16 07:01N 59°01' E 010°17'612.3
2017-May-16 06:31N 59°07' E 010°14'0 0.4
2017-May-16 06:01N 59°08' E 010°14'1 2.8
2017-May-16 05:31N 59°06' E 010°14'0 0.0
2017-May-16 05:00N 59°06' E 010°14'0 0.0
2017-May-16 04:31N 59°06' E 010°14'0 0.0
2017-May-16 04:01N 59°06' E 010°14'0 0.0
2017-May-16 03:30N 59°06' E 010°14'0 0.0
2017-May-16 03:00N 59°06' E 010°14'0 0.0
2017-May-16 02:31N 59°06' E 010°14'0 0.0
2017-May-16 02:01N 59°06' E 010°14'0 0.0
2017-May-16 01:31N 59°06' E 010°14'0 0.0
2017-May-16 01:00N 59°06' E 010°14'0 0.0
2017-May-16 00:31N 59°06' E 010°14'0 0.0
2017-May-16 00:01N 59°06' E 010°14'0 0.0
2017-May-15 23:30N 59°06' E 010°14'0 0.0
2017-May-15 23:01N 59°06' E 010°14'0 0.0
2017-May-15 22:31N 59°06' E 010°14'0 0.0
2017-May-15 22:00N 59°06' E 010°14'0 0.0
2017-May-15 21:31N 59°06' E 010°14'0 0.0
2017-May-15 21:01N 59°06' E 010°14'0 0.0
2017-May-15 20:31N 59°06' E 010°14'0 0.0
2017-May-15 20:01N 59°06' E 010°14'1 1.5
2017-May-15 19:30N 59°07' E 010°14'1 1.2
2017-May-15 19:00N 59°08' E 010°14'4 8.1
2017-May-15 18:31N 59°04' E 010°15'612.4
2017-May-15 18:01N 59°01' E 010°26'815.8
2017-May-15 17:31N 59°01' E 010°41'815.3
2017-May-15 17:01N 59°00' E 010°56'815.5
2017-May-15 16:30N 58°56' E 011°08'1 2.1
2017-May-15 16:01N 58°56' E 011°10'3 5.6
2017-May-15 15:31N 58°56' E 011°05'816.3
2017-May-15 15:01N 59°01' E 010°52'1716.7
2017-May-15 14:01N 59°01' E 010°19'713.0
2017-May-15 13:30N 59°07' E 010°14'1 1.4
2017-May-15 13:00N 59°08' E 010°14'0 0.0
2017-May-15 12:31N 59°08' E 010°14'510.0
2017-May-15 12:01N 59°03' E 010°15'714.4
2017-May-15 11:31N 59°01' E 010°29'815.0
2017-May-15 11:01N 59°02' E 010°43'815.0
2017-May-15 10:31N 58°60' E 010°58'713.9
2017-May-15 10:00N 58°56' E 011°08'1 1.8
2017-May-15 09:31N 58°56' E 011°10'0 0.0
2017-May-15 09:01N 58°56' E 011°10'5 9.6
2017-May-15 08:31N 58°58' E 011°02'816.0
2017-May-15 08:01N 59°02' E 010°48'816.7
2017-May-15 07:31N 59°01' E 010°32'816.2
2017-May-15 07:01N 59°02' E 010°17'611.9
2017-May-15 06:30N 59°07' E 010°14'0 0.4
2017-May-15 06:01N 59°08' E 010°14'1 2.8
2017-May-15 05:30N 59°06' E 010°14'0 0.0
2017-May-15 05:00N 59°06' E 010°14'0 0.0
2017-May-15 04:28N 59°06' E 010°14'0 0.0
2017-May-15 03:58N 59°06' E 010°14'0 0.0
2017-May-15 03:29N 59°06' E 010°14'0 0.0
2017-May-15 02:59N 59°06' E 010°14'0 0.0
2017-May-15 02:29N 59°06' E 010°14'0 0.0
2017-May-15 02:00N 59°06' E 010°14'0 0.0
2017-May-15 01:30N 59°06' E 010°14'0 0.0
2017-May-15 01:00N 59°06' E 010°14'0 0.0
2017-May-15 00:30N 59°06' E 010°14'0 0.0
2017-May-14 23:58N 59°06' E 010°14'0 0.0
2017-May-14 23:28N 59°06' E 010°14'0 0.0
2017-May-14 22:59N 59°06' E 010°14'0 0.0
2017-May-14 22:29N 59°06' E 010°14'0 0.0
2017-May-14 21:59N 59°06' E 010°14'0 0.0
2017-May-14 21:30N 59°06' E 010°14'0 0.0
2017-May-14 21:00N 59°06' E 010°14'  

Dump ship's entire track history